sensor_id;sensor_type;location;lat;lon;timestamp;pressure;altitude;pressure_sealevel;temperature;humidity
44144;BME280;68165;51.920;4.492;2023-03-02T00:00:39;66425.03;;;5.03;69.23
44144;BME280;68165;51.920;4.492;2023-03-02T00:03:05;66426.50;;;5.02;69.71
44144;BME280;68165;51.920;4.492;2023-03-02T00:05:32;66419.28;;;5.03;70.41
44144;BME280;68165;51.920;4.492;2023-03-02T00:07:58;66421.16;;;5.00;71.28
44144;BME280;68165;51.920;4.492;2023-03-02T00:10:24;66417.25;;;4.96;72.26
44144;BME280;68165;51.920;4.492;2023-03-02T00:12:50;66400.22;;;4.83;72.97
44144;BME280;68165;51.920;4.492;2023-03-02T00:15:16;66418.91;;;4.98;74.13
44144;BME280;68165;51.920;4.492;2023-03-02T00:17:41;66410.78;;;4.92;74.60
44144;BME280;68165;51.920;4.492;2023-03-02T00:20:07;66389.13;;;4.73;75.27
44144;BME280;68165;51.920;4.492;2023-03-02T00:22:41;66409.09;;;4.91;76.18
44144;BME280;68165;51.920;4.492;2023-03-02T00:25:09;66392.47;;;4.76;76.82
44144;BME280;68165;51.920;4.492;2023-03-02T00:27:40;66393.19;;;4.79;77.58
44144;BME280;68165;51.920;4.492;2023-03-02T00:30:10;66403.56;;;4.86;78.77
44144;BME280;68165;51.920;4.492;2023-03-02T00:32:36;66397.47;;;4.80;79.08
44144;BME280;68165;51.920;4.492;2023-03-02T00:35:02;66389.88;;;4.76;80.04
44144;BME280;68165;51.920;4.492;2023-03-02T00:37:28;66389.13;;;4.73;81.41
44144;BME280;68165;51.920;4.492;2023-03-02T00:39:53;66386.53;;;4.73;81.85
44144;BME280;68165;51.920;4.492;2023-03-02T00:42:20;66385.81;;;4.70;83.68
44144;BME280;68165;51.920;4.492;2023-03-02T00:44:45;66378.22;;;4.65;84.78
44144;BME280;68165;51.920;4.492;2023-03-02T00:47:11;66375.09;;;4.58;86.29
44144;BME280;68165;51.920;4.492;2023-03-02T00:49:37;66375.66;;;4.58;87.47
44144;BME280;68165;51.920;4.492;2023-03-02T00:52:03;66371.94;;;4.57;88.04
44144;BME280;68165;51.920;4.492;2023-03-02T00:54:29;66370.81;;;4.56;89.00
44144;BME280;68165;51.920;4.492;2023-03-02T00:56:54;66363.78;;;4.52;90.02
44144;BME280;68165;51.920;4.492;2023-03-02T00:59:21;66366.56;;;4.55;90.33
44144;BME280;68165;51.920;4.492;2023-03-02T01:01:54;66359.91;;;4.48;90.63
44144;BME280;68165;51.920;4.492;2023-03-02T01:04:41;66359.91;;;4.48;91.45
44144;BME280;68165;51.920;4.492;2023-03-02T01:07:12;66368.44;;;4.51;92.19
44144;BME280;68165;51.920;4.492;2023-03-02T01:09:40;66361.94;;;4.48;92.38
44144;BME280;68165;51.920;4.492;2023-03-02T01:12:07;66351.22;;;4.36;93.90
44144;BME280;68165;51.920;4.492;2023-03-02T01:14:39;66357.31;;;4.41;94.21
44144;BME280;68165;51.920;4.492;2023-03-02T01:17:06;66349.19;;;4.36;94.60
44144;BME280;68165;51.920;4.492;2023-03-02T01:19:32;66348.47;;;4.33;95.22
44144;BME280;68165;51.920;4.492;2023-03-02T01:21:58;66352.16;;;4.34;95.78
44144;BME280;68165;51.920;4.492;2023-03-02T01:24:24;66348.47;;;4.33;95.60
44144;BME280;68165;51.920;4.492;2023-03-02T01:26:49;66344.94;;;4.35;96.30
44144;BME280;68165;51.920;4.492;2023-03-02T01:29:15;66346.78;;;4.32;96.22
44144;BME280;68165;51.920;4.492;2023-03-02T01:31:41;66337.72;;;4.28;96.83
44144;BME280;68165;51.920;4.492;2023-03-02T01:34:06;66335.50;;;4.26;96.96
44144;BME280;68165;51.920;4.492;2023-03-02T01:36:32;66338.66;;;4.27;97.02
44144;BME280;68165;51.920;4.492;2023-03-02T01:38:58;66336.81;;;4.23;97.52
44144;BME280;68165;51.920;4.492;2023-03-02T01:41:25;66330.69;;;4.17;97.46
44144;BME280;68165;51.920;4.492;2023-03-02T01:43:51;66322.19;;;4.14;98.48
44144;BME280;68165;51.920;4.492;2023-03-02T01:46:25;66326.06;;;4.18;99.23
44144;BME280;68165;51.920;4.492;2023-03-02T01:51:25;66321.66;;;4.06;99.22
44144;BME280;68165;51.920;4.492;2023-03-02T01:53:57;66316.47;;;4.06;99.96
44144;BME280;68165;51.920;4.492;2023-03-02T01:56:35;66316.84;;;4.04;100.00
44144;BME280;68165;51.920;4.492;2023-03-02T01:59:05;66310.00;;;4.03;100.00
44144;BME280;68165;51.920;4.492;2023-03-02T02:01:33;66307.97;;;3.96;100.00
44144;BME280;68165;51.920;4.492;2023-03-02T02:04:00;66306.50;;;3.97;99.96
44144;BME280;68165;51.920;4.492;2023-03-02T02:06:31;66301.66;;;3.95;100.00
44144;BME280;68165;51.920;4.492;2023-03-02T02:09:00;66297.81;;;3.92;100.00
44144;BME280;68165;51.920;4.492;2023-03-02T02:11:27;66292.81;;;3.87;100.00
44144;BME280;68165;51.920;4.492;2023-03-02T02:13:56;66293.34;;;3.88;100.00
44144;BME280;68165;51.920;4.492;2023-03-02T02:16:24;66287.63;;;3.80;100.00
44144;BME280;68165;51.920;4.492;2023-03-02T02:18:50;66286.16;;;3.81;100.00
44144;BME280;68165;51.920;4.492;2023-03-02T02:21:16;66280.59;;;3.76;100.00
44144;BME280;68165;51.920;4.492;2023-03-02T02:24:01;66283.94;;;3.79;100.00
44144;BME280;68165;51.920;4.492;2023-03-02T02:26:40;66279.13;;;3.77;100.00
44144;BME280;68165;51.920;4.492;2023-03-02T02:29:11;66275.97;;;3.69;100.00
44144;BME280;68165;51.920;4.492;2023-03-02T02:31:50;66272.84;;;3.69;100.00
44144;BME280;68165;51.920;4.492;2023-03-02T02:37:14;66273.03;;;3.72;100.00
44144;BME280;68165;51.920;4.492;2023-03-02T02:39:45;66271.75;;;3.68;100.00
44144;BME280;68165;51.920;4.492;2023-03-02T02:42:26;66279.31;;;3.73;100.00
44144;BME280;68165;51.920;4.492;2023-03-02T02:44:56;66276.38;;;3.67;100.00
44144;BME280;68165;51.920;4.492;2023-03-02T02:47:22;66264.19;;;3.56;100.00
44144;BME280;68165;51.920;4.492;2023-03-02T02:49:50;66267.50;;;3.59;100.00
44144;BME280;68165;51.920;4.492;2023-03-02T02:52:19;66262.69;;;3.57;100.00
44144;BME280;68165;51.920;4.492;2023-03-02T02:54:47;66264.34;;;3.59;100.00
44144;BME280;68165;51.920;4.492;2023-03-02T02:57:15;66256.78;;;3.54;100.00
44144;BME280;68165;51.920;4.492;2023-03-02T02:59:44;66261.75;;;3.59;100.00
44144;BME280;68165;51.920;4.492;2023-03-02T03:02:17;66265.28;;;3.57;100.00
44144;BME280;68165;51.920;4.492;2023-03-02T03:04:43;66255.84;;;3.49;100.00
44144;BME280;68165;51.920;4.492;2023-03-02T03:07:15;66259.91;;;3.55;100.00
44144;BME280;68165;51.920;4.492;2023-03-02T03:09:41;66290.03;;;3.85;100.00
44144;BME280;68165;51.920;4.492;2023-03-02T03:12:16;66271.00;;;3.65;100.00
44144;BME280;68165;51.920;4.492;2023-03-02T03:14:45;66263.97;;;3.61;100.00
44144;BME280;68165;51.920;4.492;2023-03-02T03:17:11;66262.69;;;3.57;100.00
44144;BME280;68165;51.920;4.492;2023-03-02T03:19:40;66270.63;;;3.60;100.00
44144;BME280;68165;51.920;4.492;2023-03-02T03:22:06;66264.53;;;3.61;100.00
44144;BME280;68165;51.920;4.492;2023-03-02T03:24:33;66264.91;;;3.59;100.00
44144;BME280;68165;51.920;4.492;2023-03-02T03:27:00;66268.97;;;3.65;100.00
44144;BME280;68165;51.920;4.492;2023-03-02T03:29:30;66276.38;;;3.67;100.00
44144;BME280;68165;51.920;4.492;2023-03-02T03:31:56;66264.91;;;3.59;100.00
44144;BME280;68165;51.920;4.492;2023-03-02T03:34:23;66270.81;;;3.62;100.00
44144;BME280;68165;51.920;4.492;2023-03-02T03:36:49;66255.09;;;3.53;100.00
44144;BME280;68165;51.920;4.492;2023-03-02T03:39:16;66269.72;;;3.61;100.00
44144;BME280;68165;51.920;4.492;2023-03-02T03:41:43;66273.03;;;3.64;100.00
44144;BME280;68165;51.920;4.492;2023-03-02T03:44:09;66254.00;;;3.52;100.00
44144;BME280;68165;51.920;4.492;2023-03-02T03:46:34;66259.72;;;3.59;100.00
44144;BME280;68165;51.920;4.492;2023-03-02T03:49:00;66261.59;;;3.56;100.00
44144;BME280;68165;51.920;4.492;2023-03-02T03:51:25;66264.91;;;3.59;100.00
44144;BME280;68165;51.920;4.492;2023-03-02T03:53:51;66266.56;;;3.61;100.00
44144;BME280;68165;51.920;4.492;2023-03-02T03:56:27;66267.13;;;3.61;100.00
44144;BME280;68165;51.920;4.492;2023-03-02T03:58:53;66251.22;;;3.49;100.00
44144;BME280;68165;51.920;4.492;2023-03-02T04:01:42;66257.88;;;3.55;100.00
44144;BME280;68165;51.920;4.492;2023-03-02T04:04:13;66256.78;;;3.54;100.00
44144;BME280;68165;51.920;4.492;2023-03-02T04:06:40;66247.16;;;3.43;100.00
44144;BME280;68165;51.920;4.492;2023-03-02T04:09:06;66259.00;;;3.49;100.00
44144;BME280;68165;51.920;4.492;2023-03-02T04:11:37;66255.66;;;3.53;100.00
44144;BME280;68165;51.920;4.492;2023-03-02T04:14:04;66255.66;;;3.53;100.00
44144;BME280;68165;51.920;4.492;2023-03-02T04:16:30;66259.72;;;3.52;100.00
44144;BME280;68165;51.920;4.492;2023-03-02T04:18:56;66236.09;;;3.33;100.00
44144;BME280;68165;51.920;4.492;2023-03-02T04:21:21;66248.09;;;3.42;100.00
44144;BME280;68165;51.920;4.492;2023-03-02T04:23:47;66261.22;;;3.51;100.00
44144;BME280;68165;51.920;4.492;2023-03-02T04:26:13;66241.25;;;3.40;100.00
44144;BME280;68165;51.920;4.492;2023-03-02T04:28:38;66243.66;;;3.38;100.00
44144;BME280;68165;51.920;4.492;2023-03-02T04:31:04;66239.59;;;3.39;100.00
44144;BME280;68165;51.920;4.492;2023-03-02T04:33:29;66252.34;;;3.50;100.00
44144;BME280;68165;51.920;4.492;2023-03-02T04:35:54;66235.16;;;3.35;100.00
44144;BME280;68165;51.920;4.492;2023-03-02T04:38:20;66252.72;;;3.48;100.00
44144;BME280;68165;51.920;4.492;2023-03-02T04:40:46;66256.97;;;3.50;100.00
44144;BME280;68165;51.920;4.492;2023-03-02T04:43:11;66248.28;;;3.44;100.00
44144;BME280;68165;51.920;4.492;2023-03-02T04:45:37;66248.47;;;3.40;100.00
44144;BME280;68165;51.920;4.492;2023-03-02T04:48:02;66229.63;;;3.29;100.00
44144;BME280;68165;51.920;4.492;2023-03-02T04:50:28;66241.06;;;3.38;100.00
44144;BME280;68165;51.920;4.492;2023-03-02T04:52:53;66246.44;;;3.40;100.00
44144;BME280;68165;51.920;4.492;2023-03-02T04:55:21;66236.47;;;3.31;100.00
44144;BME280;68165;51.920;4.492;2023-03-02T04:57:48;66241.06;;;3.38;100.00
44144;BME280;68165;51.920;4.492;2023-03-02T05:00:16;66230.53;;;3.28;100.00
44144;BME280;68165;51.920;4.492;2023-03-02T05:02:42;66233.50;;;3.33;100.00
44144;BME280;68165;51.920;4.492;2023-03-02T05:05:15;66219.09;;;3.20;100.00
44144;BME280;68165;51.920;4.492;2023-03-02T05:07:41;66235.16;;;3.35;100.00
44144;BME280;68165;51.920;4.492;2023-03-02T05:10:09;66244.59;;;3.36;100.00
44144;BME280;68165;51.920;4.492;2023-03-02T05:12:35;66236.66;;;3.34;100.00
44144;BME280;68165;51.920;4.492;2023-03-02T05:15:33;66236.66;;;3.34;100.00
44144;BME280;68165;51.920;4.492;2023-03-02T05:18:00;66234.59;;;3.34;100.00
44144;BME280;68165;51.920;4.492;2023-03-02T05:20:26;66230.16;;;3.30;100.00
44144;BME280;68165;51.920;4.492;2023-03-02T05:22:54;66233.69;;;3.28;100.00
44144;BME280;68165;51.920;4.492;2023-03-02T05:25:20;66226.84;;;3.27;100.00
44144;BME280;68165;51.920;4.492;2023-03-02T05:27:46;66232.59;;;3.27;100.00
44144;BME280;68165;51.920;4.492;2023-03-02T05:30:11;66229.44;;;3.27;100.00
44144;BME280;68165;51.920;4.492;2023-03-02T05:32:37;66228.88;;;3.26;100.00
44144;BME280;68165;51.920;4.492;2023-03-02T05:35:02;66224.63;;;3.25;100.00
44144;BME280;68165;51.920;4.492;2023-03-02T05:37:28;66215.75;;;3.17;100.00
44144;BME280;68165;51.920;4.492;2023-03-02T05:39:53;66220.00;;;3.18;100.00
44144;BME280;68165;51.920;4.492;2023-03-02T05:42:19;66212.25;;;3.11;100.00
44144;BME280;68165;51.920;4.492;2023-03-02T05:44:44;66214.47;;;3.13;100.00
44144;BME280;68165;51.920;4.492;2023-03-02T05:47:09;66204.31;;;3.09;100.00
44144;BME280;68165;51.920;4.492;2023-03-02T05:49:35;66222.59;;;3.18;100.00
44144;BME280;68165;51.920;4.492;2023-03-02T05:52:00;66211.69;;;3.11;100.00
44144;BME280;68165;51.920;4.492;2023-03-02T05:54:26;66222.03;;;3.18;100.00
44144;BME280;68165;51.920;4.492;2023-03-02T05:56:51;66215.19;;;3.16;100.00
44144;BME280;68165;51.920;4.492;2023-03-02T05:59:16;66206.91;;;3.09;100.00
44144;BME280;68165;51.920;4.492;2023-03-02T06:01:42;66200.06;;;3.00;100.00
44144;BME280;68165;51.920;4.492;2023-03-02T06:04:07;66216.16;;;3.15;100.00
44144;BME280;68165;51.920;4.492;2023-03-02T06:06:32;66204.69;;;3.07;100.00
44144;BME280;68165;51.920;4.492;2023-03-02T06:08:58;66195.81;;;2.99;100.00
44144;BME280;68165;51.920;4.492;2023-03-02T06:11:23;66211.53;;;3.08;100.00
44144;BME280;68165;51.920;4.492;2023-03-02T06:13:49;66202.84;;;3.03;100.00
44144;BME280;68165;51.920;4.492;2023-03-02T06:16:14;66218.34;;;3.17;100.00
44144;BME280;68165;51.920;4.492;2023-03-02T06:18:39;66216.69;;;3.15;100.00
44144;BME280;68165;51.920;4.492;2023-03-02T06:21:05;66210.78;;;3.12;100.00
44144;BME280;68165;51.920;4.492;2023-03-02T06:23:31;66216.69;;;3.15;100.00
44144;BME280;68165;51.920;4.492;2023-03-02T06:25:56;66213.19;;;3.10;100.00
44144;BME280;68165;51.920;4.492;2023-03-02T06:28:22;66199.50;;;3.00;100.00
44144;BME280;68165;51.920;4.492;2023-03-02T06:30:48;66208.38;;;3.08;100.00
44144;BME280;68165;51.920;4.492;2023-03-02T06:33:18;66214.66;;;3.09;100.00
44144;BME280;68165;51.920;4.492;2023-03-02T06:35:45;66209.84;;;3.07;100.00
44144;BME280;68165;51.920;4.492;2023-03-02T06:38:10;66207.63;;;3.05;100.00
44144;BME280;68165;51.920;4.492;2023-03-02T06:40:36;66210.06;;;3.09;100.00
44144;BME280;68165;51.920;4.492;2023-03-02T06:43:02;66209.84;;;3.07;100.00
44144;BME280;68165;51.920;4.492;2023-03-02T06:45:28;66210.78;;;3.12;100.00
44144;BME280;68165;51.920;4.492;2023-03-02T06:47:54;66220.56;;;3.19;100.00
44144;BME280;68165;51.920;4.492;2023-03-02T06:50:21;66232.03;;;3.27;100.00
44144;BME280;68165;51.920;4.492;2023-03-02T06:52:46;66231.28;;;3.31;100.00
44144;BME280;68165;51.920;4.492;2023-03-02T06:55:12;66239.41;;;3.36;100.00
44144;BME280;68165;51.920;4.492;2023-03-02T06:57:37;66242.19;;;3.39;100.00
44144;BME280;68165;51.920;4.492;2023-03-02T07:00:05;66248.28;;;3.44;100.00
44144;BME280;68165;51.920;4.492;2023-03-02T07:02:34;66250.69;;;3.42;100.00
44144;BME280;68165;51.920;4.492;2023-03-02T07:05:00;66269.72;;;3.61;100.00
44144;BME280;68165;51.920;4.492;2023-03-02T07:07:25;66267.28;;;3.64;100.00
44144;BME280;68165;51.920;4.492;2023-03-02T07:09:50;66265.44;;;3.67;100.00
44144;BME280;68165;51.920;4.492;2023-03-02T07:12:16;66278.75;;;3.72;100.00
44144;BME280;68165;51.920;4.492;2023-03-02T07:14:41;66279.31;;;3.73;100.00
44144;BME280;68165;51.920;4.492;2023-03-02T07:17:07;66292.63;;;3.85;100.00
44144;BME280;68165;51.920;4.492;2023-03-02T07:19:33;66312.94;;;4.01;100.00
44144;BME280;68165;51.920;4.492;2023-03-02T07:21:58;66322.00;;;4.11;99.49
44144;BME280;68165;51.920;4.492;2023-03-02T07:24:23;66334.94;;;4.26;99.19
44144;BME280;68165;51.920;4.492;2023-03-02T07:26:49;66346.59;;;4.36;98.63
44144;BME280;68165;51.920;4.492;2023-03-02T07:29:14;66358.78;;;4.47;98.57
44144;BME280;68165;51.920;4.492;2023-03-02T07:31:39;66375.09;;;4.58;97.58
44144;BME280;68165;51.920;4.492;2023-03-02T07:34:07;66373.78;;;4.61;96.53
44144;BME280;68165;51.920;4.492;2023-03-02T07:36:33;66397.63;;;4.83;95.49
44144;BME280;68165;51.920;4.492;2023-03-02T07:38:58;66409.84;;;4.94;95.40
44144;BME280;68165;51.920;4.492;2023-03-02T07:41:23;66412.06;;;4.96;93.88
44144;BME280;68165;51.920;4.492;2023-03-02T07:43:49;66453.91;;;5.29;92.88
44144;BME280;68165;51.920;4.492;2023-03-02T07:46:14;66457.78;;;5.33;92.60
44144;BME280;68165;51.920;4.492;2023-03-02T07:48:40;66471.66;;;5.46;91.64
44144;BME280;68165;51.920;4.492;2023-03-02T07:51:05;66475.53;;;5.49;91.24
44144;BME280;68165;51.920;4.492;2023-03-02T07:53:31;66470.56;;;5.45;90.11
44144;BME280;68165;51.920;4.492;2023-03-02T07:55:57;66457.41;;;5.35;90.08
44144;BME280;68165;51.920;4.492;2023-03-02T07:58:23;66461.09;;;5.43;89.72
44144;BME280;68165;51.920;4.492;2023-03-02T08:00:49;66477.00;;;5.55;89.10
44144;BME280;68165;51.920;4.492;2023-03-02T08:03:14;66501.28;;;5.75;88.21
44144;BME280;68165;51.920;4.492;2023-03-02T08:05:40;66524.44;;;5.94;87.62
44144;BME280;68165;51.920;4.492;2023-03-02T08:08:05;66534.25;;;6.07;86.91
44144;BME280;68165;51.920;4.492;2023-03-02T08:10:33;66546.47;;;6.19;86.14
44144;BME280;68165;51.920;4.492;2023-03-02T08:12:59;66546.09;;;6.21;84.76
44144;BME280;68165;51.920;4.492;2023-03-02T08:15:24;66557.56;;;6.29;84.12
44144;BME280;68165;51.920;4.492;2023-03-02T08:17:50;66573.16;;;6.43;82.61
44144;BME280;68165;51.920;4.492;2023-03-02T08:20:15;66580.91;;;6.50;81.51
44144;BME280;68165;51.920;4.492;2023-03-02T08:22:42;66605.75;;;6.70;80.84
44144;BME280;68165;51.920;4.492;2023-03-02T08:25:07;66643.94;;;7.03;79.05
44144;BME280;68165;51.920;4.492;2023-03-02T08:27:33;66669.13;;;7.28;78.16
44144;BME280;68165;51.920;4.492;2023-03-02T08:29:58;66683.97;;;7.39;76.88
44144;BME280;68165;51.920;4.492;2023-03-02T08:32:24;66679.31;;;7.39;75.26
44144;BME280;68165;51.920;4.492;2023-03-02T08:34:50;66719.59;;;7.71;75.09
44144;BME280;68165;51.920;4.492;2023-03-02T08:37:17;66718.81;;;7.75;73.64
44144;BME280;68165;51.920;4.492;2023-03-02T08:39:43;66744.97;;;7.99;71.80
44144;BME280;68165;51.920;4.492;2023-03-02T08:42:08;66778.38;;;8.30;70.23
44144;BME280;68165;51.920;4.492;2023-03-02T08:44:34;66797.53;;;8.42;68.68
44144;BME280;68165;51.920;4.492;2023-03-02T08:46:59;66807.34;;;8.56;68.63
44144;BME280;68165;51.920;4.492;2023-03-02T08:49:24;66804.94;;;8.51;67.88
44144;BME280;68165;51.920;4.492;2023-03-02T08:51:50;66800.88;;;8.45;67.12
44144;BME280;68165;51.920;4.492;2023-03-02T08:54:18;66793.81;;;8.41;66.83
44144;BME280;68165;51.920;4.492;2023-03-02T08:56:44;66785.06;;;8.36;66.74
44144;BME280;68165;51.920;4.492;2023-03-02T08:59:11;66770.22;;;8.17;66.71
44144;BME280;68165;51.920;4.492;2023-03-02T09:01:37;66776.34;;;8.23;66.69
44144;BME280;68165;51.920;4.492;2023-03-02T09:04:06;66765.41;;;8.15;66.89
44144;BME280;68165;51.920;4.492;2023-03-02T09:06:34;66784.72;;;8.31;66.47
44144;BME280;68165;51.920;4.492;2023-03-02T09:09:00;66792.69;;;8.40;66.05
44144;BME280;68165;51.920;4.492;2023-03-02T09:11:26;66800.28;;;8.52;65.24
44144;BME280;68165;51.920;4.492;2023-03-02T09:13:51;66830.16;;;8.77;64.46
44144;BME280;68165;51.920;4.492;2023-03-02T09:16:18;66807.91;;;8.56;62.22
44144;BME280;68165;51.920;4.492;2023-03-02T09:18:45;66807.16;;;8.53;61.61
44144;BME280;68165;51.920;4.492;2023-03-02T09:21:10;66813.84;;;8.59;61.25
44144;BME280;68165;51.920;4.492;2023-03-02T09:23:36;66798.44;;;8.48;60.73
44144;BME280;68165;51.920;4.492;2023-03-02T09:26:02;66792.88;;;8.43;60.66
44144;BME280;68165;51.920;4.492;2023-03-02T09:28:28;66792.69;;;8.40;60.54
44144;BME280;68165;51.920;4.492;2023-03-02T09:30:56;66800.88;;;8.45;60.68
44144;BME280;68165;51.920;4.492;2023-03-02T09:33:22;66788.25;;;8.36;60.45
44144;BME280;68165;51.920;4.492;2023-03-02T09:35:48;66790.63;;;8.41;59.63
44144;BME280;68165;51.920;4.492;2023-03-02T09:38:15;66806.78;;;8.55;60.06
44144;BME280;68165;51.920;4.492;2023-03-02T09:43:35;66855.63;;;8.97;58.92
44144;BME280;68165;51.920;4.492;2023-03-02T09:46:26;66870.66;;;9.11;57.14
44144;BME280;68165;51.920;4.492;2023-03-02T09:54:54;66870.13;;;9.11;56.17
44144;BME280;68165;51.920;4.492;2023-03-02T09:57:23;66892.78;;;9.29;56.29
44144;BME280;68165;51.920;4.492;2023-03-02T09:59:58;66887.56;;;9.29;55.52
44144;BME280;68165;51.920;4.492;2023-03-02T10:02:30;66885.50;;;9.29;55.34
44144;BME280;68165;51.920;4.492;2023-03-02T10:05:00;66928.63;;;9.64;55.18
44144;BME280;68165;51.920;4.492;2023-03-02T10:07:31;66960.94;;;9.93;54.25
44144;BME280;68165;51.920;4.492;2023-03-02T10:10:11;67057.63;;;10.83;53.23
44144;BME280;68165;51.920;4.492;2023-03-02T10:16:01;67081.44;;;11.02;50.94
44144;BME280;68165;51.920;4.492;2023-03-02T10:21:31;67069.16;;;10.91;51.43
44144;BME280;68165;51.920;4.492;2023-03-02T10:24:06;67033.06;;;10.61;51.99
44144;BME280;68165;51.920;4.492;2023-03-02T10:26:41;66999.63;;;10.31;52.29
44144;BME280;68165;51.920;4.492;2023-03-02T10:32:27;67033.06;;;10.61;52.90
44144;BME280;68165;51.920;4.492;2023-03-02T10:34:54;67025.81;;;10.54;52.43
44144;BME280;68165;51.920;4.492;2023-03-02T10:37:23;67030.50;;;10.54;51.57
44144;BME280;68165;51.920;4.492;2023-03-02T10:39:53;67027.47;;;10.56;51.72
44144;BME280;68165;51.920;4.492;2023-03-02T10:42:28;67023.75;;;10.55;51.97
44144;BME280;68165;51.920;4.492;2023-03-02T10:45:01;67022.47;;;10.51;51.81
44144;BME280;68165;51.920;4.492;2023-03-02T10:47:30;67017.44;;;10.47;51.96
44144;BME280;68165;51.920;4.492;2023-03-02T10:49:56;67011.88;;;10.42;51.91
44144;BME280;68165;51.920;4.492;2023-03-02T10:52:25;67023.59;;;10.52;52.20
44144;BME280;68165;51.920;4.492;2023-03-02T10:55:05;67040.16;;;10.65;52.33
44144;BME280;68165;51.920;4.492;2023-03-02T10:57:39;67041.44;;;10.69;51.53
44144;BME280;68165;51.920;4.492;2023-03-02T11:00:21;67068.22;;;10.93;51.37
44144;BME280;68165;51.920;4.492;2023-03-02T11:02:58;67067.66;;;10.92;51.99
44144;BME280;68165;51.920;4.492;2023-03-02T11:10:23;67046.63;;;10.76;51.74
44144;BME280;68165;51.920;4.492;2023-03-02T11:12:51;67050.94;;;10.77;51.92
44144;BME280;68165;51.920;4.492;2023-03-02T11:18:29;67060.97;;;10.86;51.00
44144;BME280;68165;51.920;4.492;2023-03-02T11:21:00;67050.38;;;10.77;51.27
44144;BME280;68165;51.920;4.492;2023-03-02T11:31:48;67073.78;;;10.98;53.00
44144;BME280;68165;51.920;4.492;2023-03-02T11:39:35;67057.63;;;10.83;51.80
44144;BME280;68165;51.920;4.492;2023-03-02T11:42:04;67074.91;;;10.99;51.58
44144;BME280;68165;51.920;4.492;2023-03-02T11:44:29;67074.91;;;10.99;51.67
44144;BME280;68165;51.920;4.492;2023-03-02T11:46:59;67080.31;;;11.01;52.01
44144;BME280;68165;51.920;4.492;2023-03-02T11:49:38;67096.13;;;11.18;51.92
44144;BME280;68165;51.920;4.492;2023-03-02T11:52:15;67108.22;;;11.27;52.01
44144;BME280;68165;51.920;4.492;2023-03-02T11:54:49;67119.00;;;11.39;52.20
44144;BME280;68165;51.920;4.492;2023-03-02T11:57:29;67121.94;;;11.44;52.21
44144;BME280;68165;51.920;4.492;2023-03-02T11:59:57;67126.47;;;11.41;52.61
44144;BME280;68165;51.920;4.492;2023-03-02T12:02:24;67130.16;;;11.49;52.37
44144;BME280;68165;51.920;4.492;2023-03-02T12:05:24;67127.94;;;11.47;52.59
44144;BME280;68165;51.920;4.492;2023-03-02T12:08:28;67121.56;;;11.46;52.30
44144;BME280;68165;51.920;4.492;2023-03-02T12:13:27;67124.22;;;11.39;52.32
44144;BME280;68165;51.920;4.492;2023-03-02T12:15:54;67113.25;;;11.31;51.78
44144;BME280;68165;51.920;4.492;2023-03-02T12:21:18;67124.56;;;11.44;52.23
44144;BME280;68165;51.920;4.492;2023-03-02T12:31:42;67136.88;;;11.55;51.99
44144;BME280;68165;51.920;4.492;2023-03-02T12:34:32;67149.69;;;11.67;51.38
44144;BME280;68165;51.920;4.492;2023-03-02T12:37:13;67141.09;;;11.64;50.88
44144;BME280;68165;51.920;4.492;2023-03-02T12:48:00;67160.72;;;11.74;50.79
44144;BME280;68165;51.920;4.492;2023-03-02T12:50:28;67160.50;;;11.79;49.93
44144;BME280;68165;51.920;4.492;2023-03-02T12:55:22;67156.59;;;11.75;49.01
44144;BME280;68165;51.920;4.492;2023-03-02T12:57:54;67181.22;;;11.91;49.67
44144;BME280;68165;51.920;4.492;2023-03-02T13:00:25;67186.56;;;12.00;49.09
44144;BME280;68165;51.920;4.492;2023-03-02T13:02:53;67198.28;;;12.11;48.43
44144;BME280;68165;51.920;4.492;2023-03-02T13:05:27;67195.50;;;12.08;48.64
44144;BME280;68165;51.920;4.492;2023-03-02T13:07:57;67196.06;;;12.09;48.06
44144;BME280;68165;51.920;4.492;2023-03-02T13:10:33;67192.38;;;12.01;47.42
44144;BME280;68165;51.920;4.492;2023-03-02T13:13:15;67180.59;;;11.97;46.29
44144;BME280;68165;51.920;4.492;2023-03-02T13:18:14;67163.69;;;11.79;45.91
44144;BME280;68165;51.920;4.492;2023-03-02T13:20:40;67172.44;;;11.85;45.94
44144;BME280;68165;51.920;4.492;2023-03-02T13:23:05;67183.78;;;11.98;46.20
44144;BME280;68165;51.920;4.492;2023-03-02T13:25:31;67193.66;;;12.04;47.17
44144;BME280;68165;51.920;4.492;2023-03-02T13:28:02;67188.06;;;11.99;48.61
44144;BME280;68165;51.920;4.492;2023-03-02T13:30:32;67170.22;;;11.83;49.86
44144;BME280;68165;51.920;4.492;2023-03-02T13:33:12;67165.56;;;11.76;51.30
44144;BME280;68165;51.920;4.492;2023-03-02T13:35:45;67162.25;;;11.73;52.27
44144;BME280;68165;51.920;4.492;2023-03-02T13:38:16;67149.16;;;11.66;52.40
44144;BME280;68165;51.920;4.492;2023-03-02T13:40:48;67131.66;;;11.48;51.88
44144;BME280;68165;51.920;4.492;2023-03-02T13:45:55;67121.78;;;11.41;52.53
44144;BME280;68165;51.920;4.492;2023-03-02T13:48:21;67102.63;;;11.22;53.34
44144;BME280;68165;51.920;4.492;2023-03-02T13:53:33;67109.75;;;11.26;54.23
44144;BME280;68165;51.920;4.492;2023-03-02T13:56:02;67121.06;;;11.38;54.69
44144;BME280;68165;51.920;4.492;2023-03-02T13:58:30;67113.97;;;11.34;55.24
44144;BME280;68165;51.920;4.492;2023-03-02T14:01:00;67117.53;;;11.33;55.56
44144;BME280;68165;51.920;4.492;2023-03-02T14:03:29;67110.06;;;11.31;56.18
44144;BME280;68165;51.920;4.492;2023-03-02T14:05:56;67099.69;;;11.17;57.00
44144;BME280;68165;51.920;4.492;2023-03-02T14:10:58;67094.28;;;11.14;58.16
44144;BME280;68165;51.920;4.492;2023-03-02T14:13:31;67087.41;;;11.05;58.44
44144;BME280;68165;51.920;4.492;2023-03-02T14:15:59;67082.16;;;11.05;58.61
44144;BME280;68165;51.920;4.492;2023-03-02T14:18:40;67089.09;;;11.07;59.30
44144;BME280;68165;51.920;4.492;2023-03-02T14:21:15;67081.28;;;11.00;59.75
44144;BME280;68165;51.920;4.492;2023-03-02T14:23:41;67078.81;;;11.02;60.38
44144;BME280;68165;51.920;4.492;2023-03-02T14:28:43;67077.91;;;10.97;61.78
44144;BME280;68165;51.920;4.492;2023-03-02T14:31:10;67060.97;;;10.86;62.49
44144;BME280;68165;51.920;4.492;2023-03-02T14:33:36;67053.13;;;10.79;62.93